首页
METAR-TAF:

METAR-TAF

机场 :

達喀爾, 塞内加尔

达喀尔-约夫-利奥波德·塞达尔·桑戈尔国际机场

纬度: 14-44N, 经度: 017-30W, 海拔: 27米

当前天气观测

该预报发布于37分钟前的01:00 UTC
风速8节,风向北转东北
温度 17°C
湿度 88%
气压 1016 hPa
能見度: 6000

METAR: GOOY 190100Z 02008KT 6000 NSC 17/15 Q1016

时间: 01:37 (01:37 UTC)

预报

该预报发布于2小时和7分钟前的23:30 UTC
预报有效从19日的 00点(UTC)到 20日的 06点(UTC)
风速15节,风向北转东北
能見度: 6000

TAF: GOOY 182330Z 1900/2006 02015KT 6000 NSC

超过4000个机场的气象观测和天气预报(METAR&TAF报告)。

可查询的气象台以黄色和红色小点在地图上表示。

将鼠标移到小点上方,可查看气象台名称。

然后点击查看天气观测和预报。

如需切换地图:点击带黑十字的绿色按钮放大地图;点击带横线的绿色按钮缩小地图;或者点击绿色箭头查看邻近地区的地图。


METAR-TAF: